Time;durP1;ratioP1;P1;durP2;ratioP2;P2;SDS_P1;SDS_P2;PMS_P1;PMS_P2;Temp;Humidity;BMP_temperature;BMP_pressure;BME280_temperature;BME280_humidity;BME280_pressure;Samples;Min_cycle;Max_cycle;Signal;HPM_P1;HPM_P2
2023/02/17 00:00:23;;;;;;;5.45;3.70;;;10.20;92.10;;;;;;5079224;28;20081;-74
2023/02/17 00:02:49;;;;;;;4.95;3.28;;;10.20;92.10;;;;;;5096133;28;20044;-73
2023/02/17 00:05:14;;;;;;;4.97;3.33;;;10.30;92.10;;;;;;5114400;28;20405;-74
2023/02/17 00:07:40;;;;;;;4.80;3.03;;;10.30;92.10;;;;;;5078970;28;20451;-74
2023/02/17 00:10:07;;;;;;;4.95;3.10;;;10.30;92.10;;;;;;5079213;28;20036;-73
2023/02/17 00:12:32;;;;;;;5.35;3.50;;;10.30;92.10;;;;;;5095728;28;20553;-73
2023/02/17 00:14:58;;;;;;;5.20;3.33;;;10.30;92.10;;;;;;5095833;28;20130;-74
2023/02/17 00:17:24;;;;;;;5.80;3.63;;;10.30;92.10;;;;;;5095805;28;20036;-73
2023/02/17 00:19:52;;;;;;;5.75;3.88;;;10.30;92.10;;;;;;5114420;28;20044;-74
2023/02/17 00:22:17;;;;;;;5.20;3.53;;;10.30;92.10;;;;;;5096089;28;20481;-73
2023/02/17 00:24:43;;;;;;;5.90;3.97;;;10.30;92.10;;;;;;5113777;28;20069;-74
2023/02/17 00:27:09;;;;;;;5.28;3.20;;;10.30;92.10;;;;;;5095407;28;20557;-73
2023/02/17 00:29:35;;;;;;;5.03;3.10;;;10.30;92.10;;;;;;5113994;28;20051;-74
2023/02/17 00:32:01;;;;;;;4.45;2.78;;;10.40;92.10;;;;;;5114121;28;20044;-74
2023/02/17 00:34:27;;;;;;;3.92;2.35;;;10.40;92.10;;;;;;5095572;28;20094;-74
2023/02/17 00:36:52;;;;;;;3.75;2.10;;;10.40;92.10;;;;;;5078422;28;20044;-74
2023/02/17 00:39:18;;;;;;;3.85;2.50;;;10.40;92.10;;;;;;5114224;28;20035;-74
2023/02/17 00:41:43;;;;;;;3.35;2.35;;;10.40;92.10;;;;;;5114057;28;20048;-74
2023/02/17 00:44:17;;;;;;;3.70;2.20;;;10.40;92.10;;;;;;5113502;28;20035;-74
2023/02/17 00:46:43;;;;;;;3.25;2.22;;;10.40;92.20;;;;;;5094432;28;20039;-74
2023/02/17 00:49:14;;;;;;;3.22;2.25;;;10.40;92.20;;;;;;5114039;28;20117;-74
2023/02/17 00:51:40;;;;;;;3.10;2.03;;;10.40;92.20;;;;;;5077028;28;20068;-74
2023/02/17 00:54:06;;;;;;;3.78;2.35;;;10.40;92.20;;;;;;5113994;28;20366;-74
2023/02/17 00:56:31;;;;;;;3.58;2.03;;;10.30;92.10;;;;;;5113935;28;20044;-74
2023/02/17 00:58:57;;;;;;;2.92;2.03;;;10.30;92.10;;;;;;5114112;28;20036;-73
2023/02/17 01:01:22;;;;;;;2.90;1.90;;;10.40;92.20;;;;;;5113214;28;20044;-73
2023/02/17 01:03:48;;;;;;;2.75;1.88;;;10.40;92.20;;;;;;5113137;28;20043;-74
2023/02/17 01:06:22;;;;;;;2.83;2.00;;;10.30;92.10;;;;;;5094948;28;20397;-73
2023/02/17 01:08:48;;;;;;;3.00;2.00;;;10.40;92.20;;;;;;5095275;28;20047;-74
2023/02/17 01:11:18;;;;;;;3.67;2.38;;;10.40;92.20;;;;;;5095411;28;20427;-74
2023/02/17 01:13:43;;;;;;;2.67;2.00;;;10.40;92.20;;;;;;5095471;28;20031;-73
2023/02/17 01:16:22;;;;;;;4.03;2.40;;;10.40;92.20;;;;;;5113011;28;20043;-74
2023/02/17 01:18:48;;;;;;;3.67;2.40;;;10.30;92.10;;;;;;5094573;28;20039;-74
2023/02/17 01:21:16;;;;;;;3.85;2.30;;;10.40;92.50;;;;;;5113426;28;20036;-74
2023/02/17 01:23:41;;;;;;;4.78;2.50;;;10.40;92.20;;;;;;5094702;28;20036;-74
2023/02/17 01:26:12;;;;;;;4.55;2.83;;;10.30;92.10;;;;;;5113319;28;20047;-74
2023/02/17 01:28:38;;;;;;;4.72;2.90;;;10.40;92.20;;;;;;5094547;28;20451;-74
2023/02/17 01:31:07;;;;;;;4.45;2.97;;;10.40;92.20;;;;;;5112741;28;20055;-73
2023/02/17 01:33:32;;;;;;;5.50;3.25;;;10.50;92.20;;;;;;5112856;28;20044;-74
2023/02/17 01:36:08;;;;;;;4.68;3.00;;;10.40;92.20;;;;;;5094651;28;20057;-74
2023/02/17 01:38:35;;;;;;;4.72;2.95;;;10.40;92.10;;;;;;5112600;28;20039;-74
2023/02/17 01:41:01;;;;;;;4.50;2.75;;;10.50;92.10;;;;;;5112696;28;20044;-74
2023/02/17 01:43:27;;;;;;;4.47;3.00;;;10.40;92.10;;;;;;5112429;28;20478;-73
2023/02/17 01:45:56;;;;;;;4.30;2.80;;;10.50;92.10;;;;;;5112435;28;20042;-74
2023/02/17 01:48:36;;;;;;;4.25;2.88;;;10.50;92.10;;;;;;5094325;28;20127;-74
2023/02/17 01:51:08;;;;;;;4.63;3.05;;;10.50;92.10;;;;;;5112393;28;20401;-74
2023/02/17 01:53:39;;;;;;;5.57;3.60;;;10.40;92.00;;;;;;5112498;28;20039;-74
2023/02/17 01:56:05;;;;;;;4.95;3.30;;;10.50;92.10;;;;;;5112459;28;20071;-74
2023/02/17 01:58:32;;;;;;;5.03;3.17;;;10.50;92.00;;;;;;5094291;28;20104;-73
2023/02/17 02:01:02;;;;;;;5.15;2.88;;;10.50;92.00;;;;;;5113009;28;20413;-74
2023/02/17 02:03:32;;;;;;;5.57;3.50;;;10.50;92.00;;;;;;5112370;28;20050;-73
2023/02/17 02:05:59;;;;;;;6.00;3.50;;;10.50;92.00;;;;;;5088916;28;20173;-74
2023/02/17 02:08:29;;;;;;;5.57;3.67;;;10.50;92.00;;;;;;5112262;28;20046;-74
2023/02/17 02:10:55;;;;;;;6.10;4.03;;;10.50;92.00;;;;;;5112235;28;20054;-74
2023/02/17 02:13:21;;;;;;;6.22;3.95;;;10.60;92.00;;;;;;5112773;28;20473;-73
2023/02/17 02:15:59;;;;;;;6.45;4.05;;;10.50;92.00;;;;;;5112596;28;20104;-73
2023/02/17 02:18:44;;;;;;;7.38;4.85;;;10.50;92.00;;;;;;5112090;28;20050;-73
2023/02/17 02:21:44;;;;;;;8.05;4.97;;;10.50;92.00;;;;;;5113627;28;20485;-73
2023/02/17 02:24:27;;;;;;;9.18;5.70;;;10.50;92.10;;;;;;5114522;28;20027;-74
2023/02/17 02:27:14;;;;;;;9.00;5.20;;;10.50;92.00;;;;;;5115911;28;20123;-74
2023/02/17 02:29:58;;;;;;;8.25;4.82;;;10.50;92.00;;;;;;5115299;28;21907;-74
2023/02/17 02:32:47;;;;;;;7.32;4.70;;;10.50;92.00;;;;;;5115385;28;20035;-74
2023/02/17 02:35:35;;;;;;;8.30;5.43;;;10.50;92.10;;;;;;5083495;28;20088;-74
2023/02/17 02:38:30;;;;;;;7.63;4.97;;;10.50;92.10;;;;;;5115250;28;20092;-74
2023/02/17 02:41:03;;;;;;;8.98;5.43;;;10.50;92.00;;;;;;5115803;28;20057;-73
2023/02/17 02:43:30;;;;;;;8.80;6.10;;;10.50;92.00;;;;;;5115318;28;20123;-74
2023/02/17 02:45:55;;;;;;;12.77;6.78;;;10.50;92.00;;;;;;5097113;28;20050;-73
2023/02/17 02:48:21;;;;;;;9.68;6.13;;;10.50;92.00;;;;;;5115399;28;20048;-74
2023/02/17 02:51:20;;;;;;;10.13;6.60;;;10.40;92.00;;;;;;5115582;28;20042;-73
2023/02/17 02:53:55;;;;;;;9.93;6.70;;;10.50;92.00;;;;;;5100096;28;20075;-73
2023/02/17 02:56:38;;;;;;;9.48;6.47;;;10.40;92.00;;;;;;5095509;28;20043;-73
2023/02/17 02:59:17;;;;;;;10.55;6.28;;;10.40;92.00;;;;;;5097818;28;20068;-74
2023/02/17 03:02:07;;;;;;;9.70;5.97;;;10.50;92.00;;;;;;5114321;28;20027;-74
2023/02/17 03:04:41;;;;;;;10.35;6.38;;;10.40;92.00;;;;;;5114816;28;20130;-74
2023/02/17 03:07:32;;;;;;;8.88;5.55;;;10.40;91.90;;;;;;5096580;28;20477;-74
2023/02/17 03:09:59;;;;;;;8.77;5.13;;;10.40;92.00;;;;;;5096434;28;20049;-73
2023/02/17 03:12:26;;;;;;;8.45;5.53;;;10.50;92.00;;;;;;5114806;28;20040;-75
2023/02/17 03:14:59;;;;;;;8.52;5.22;;;10.40;92.00;;;;;;5115135;28;20039;-74
2023/02/17 03:17:24;;;;;;;9.80;5.28;;;10.40;92.00;;;;;;5096390;28;20046;-73
2023/02/17 03:19:50;;;;;;;8.50;5.13;;;10.40;92.00;;;;;;5115125;28;20039;-74
2023/02/17 03:22:23;;;;;;;7.95;4.72;;;10.40;91.90;;;;;;5114600;28;20116;-74
2023/02/17 03:24:49;;;;;;;7.35;4.60;;;10.40;92.00;;;;;;5096601;28;20529;-74
2023/02/17 03:27:14;;;;;;;8.15;5.00;;;10.40;91.90;;;;;;5115072;28;20073;-73
2023/02/17 03:29:40;;;;;;;7.85;4.78;;;10.40;92.00;;;;;;5114256;28;20035;-75
2023/02/17 03:32:06;;;;;;;8.55;5.18;;;10.40;91.90;;;;;;5114102;28;20036;-74
2023/02/17 03:34:32;;;;;;;7.30;5.00;;;10.40;91.90;;;;;;5095667;28;20036;-74
2023/02/17 03:36:58;;;;;;;7.00;4.60;;;10.40;91.90;;;;;;5114358;28;20038;-74
2023/02/17 03:39:24;;;;;;;6.85;4.20;;;10.40;91.90;;;;;;5096122;28;20040;-74
2023/02/17 03:41:50;;;;;;;7.43;4.80;;;10.40;91.90;;;;;;5095876;28;20031;-74
2023/02/17 03:44:16;;;;;;;6.63;4.25;;;10.40;91.90;;;;;;5096063;28;20036;-74
2023/02/17 03:46:43;;;;;;;5.40;3.67;;;10.40;92.20;;;;;;5114276;28;20099;-74
2023/02/17 03:49:08;;;;;;;6.30;4.05;;;10.40;91.90;;;;;;5114259;28;20081;-74
2023/02/17 03:51:34;;;;;;;5.85;3.80;;;10.40;91.90;;;;;;5114719;28;20047;-74
2023/02/17 03:54:00;;;;;;;7.43;4.25;;;10.40;91.90;;;;;;5114972;28;20046;-74
2023/02/17 03:56:25;;;;;;;7.70;3.90;;;10.40;91.90;;;;;;5114760;28;20420;-74
2023/02/17 03:58:51;;;;;;;7.10;4.40;;;10.40;91.90;;;;;;5096264;28;20089;-74
2023/02/17 04:01:17;;;;;;;6.40;3.90;;;10.40;91.90;;;;;;5114105;28;20154;-73
2023/02/17 04:03:42;;;;;;;5.82;3.65;;;10.40;91.80;;;;;;5114662;28;20487;-74
2023/02/17 04:06:09;;;;;;;6.20;3.90;;;10.40;92.10;;;;;;5114149;28;20397;-74
2023/02/17 04:08:36;;;;;;;6.25;3.83;;;10.40;91.80;;;;;;5113920;28;20381;-73
2023/02/17 04:11:04;;;;;;;6.45;4.07;;;10.40;91.80;;;;;;5114030;28;20378;-73
2023/02/17 04:13:31;;;;;;;6.47;4.25;;;10.40;91.80;;;;;;5112053;28;20103;-73
2023/02/17 04:16:00;;;;;;;6.25;3.88;;;10.40;92.10;;;;;;5095592;28;20049;-74
2023/02/17 04:18:26;;;;;;;6.40;3.75;;;10.40;91.80;;;;;;5095895;28;20036;-74
2023/02/17 04:20:53;;;;;;;6.00;3.67;;;10.40;91.80;;;;;;5113521;28;20040;-74
2023/02/17 04:23:19;;;;;;;7.53;3.90;;;10.40;91.80;;;;;;5113650;28;20092;-73
2023/02/17 04:25:45;;;;;;;5.82;3.70;;;10.40;91.80;;;;;;5095496;28;20401;-74
2023/02/17 04:28:11;;;;;;;5.90;3.95;;;10.40;91.80;;;;;;5113523;28;20481;-73
2023/02/17 04:30:37;;;;;;;5.63;3.60;;;10.40;91.80;;;;;;5113278;28;20040;-74
2023/02/17 04:33:04;;;;;;;5.95;3.88;;;10.40;91.80;;;;;;5113644;28;20044;-74
2023/02/17 04:35:31;;;;;;;6.50;4.20;;;10.40;91.80;;;;;;5113606;28;20058;-74
2023/02/17 04:37:56;;;;;;;6.55;4.15;;;10.40;91.80;;;;;;5113595;28;20397;-74
2023/02/17 04:40:22;;;;;;;6.55;4.22;;;10.40;91.80;;;;;;5113856;28;20036;-74
2023/02/17 04:42:48;;;;;;;7.18;4.68;;;10.40;91.80;;;;;;5113524;28;20066;-74
2023/02/17 04:45:14;;;;;;;8.95;5.50;;;10.40;91.80;;;;;;5113134;28;20417;-74
2023/02/17 04:47:40;;;;;;;6.85;4.85;;;10.40;91.80;;;;;;5113107;28;20047;-74
2023/02/17 04:50:07;;;;;;;8.57;5.35;;;10.40;91.80;;;;;;5113436;28;20052;-74
2023/02/17 04:52:33;;;;;;;7.30;4.95;;;10.40;91.70;;;;;;5113120;28;20043;-74
2023/02/17 04:54:59;;;;;;;7.88;5.25;;;10.40;91.70;;;;;;5094787;28;20031;-74
2023/02/17 04:57:25;;;;;;;7.20;5.13;;;10.40;91.70;;;;;;5113038;28;20142;-74
2023/02/17 04:59:50;;;;;;;8.68;5.57;;;10.50;91.70;;;;;;5113558;28;20067;-74
2023/02/17 05:02:16;;;;;;;8.52;5.70;;;10.40;91.70;;;;;;5095640;28;20039;-74
2023/02/17 05:04:42;;;;;;;9.88;6.07;;;10.50;91.70;;;;;;5094811;28;20040;-74
2023/02/17 05:07:08;;;;;;;9.88;6.53;;;10.50;91.70;;;;;;5113101;28;20052;-74
2023/02/17 05:09:33;;;;;;;8.90;6.22;;;10.40;91.70;;;;;;5113080;28;20070;-74
2023/02/17 05:11:59;;;;;;;8.20;5.35;;;10.40;91.60;;;;;;5113580;28;20398;-74
2023/02/17 05:14:25;;;;;;;8.20;5.50;;;10.40;91.70;;;;;;5113061;28;20035;-74
2023/02/17 05:16:50;;;;;;;8.20;5.32;;;10.40;91.70;;;;;;5113076;28;20040;-74
2023/02/17 05:19:16;;;;;;;8.68;5.80;;;10.40;91.70;;;;;;5094682;28;20092;-74
2023/02/17 05:21:42;;;;;;;10.23;6.85;;;10.40;91.70;;;;;;5094686;28;20047;-75
2023/02/17 05:24:07;;;;;;;8.90;5.82;;;10.30;91.70;;;;;;5094731;28;20066;-74
2023/02/17 05:26:33;;;;;;;8.93;5.88;;;10.30;91.80;;;;;;5113501;28;20102;-75
2023/02/17 05:28:59;;;;;;;10.55;6.32;;;10.30;91.80;;;;;;5113478;28;20112;-74
2023/02/17 05:31:24;;;;;;;8.95;5.97;;;10.20;91.80;;;;;;5113067;28;20036;-74
2023/02/17 05:33:52;;;;;;;9.23;6.15;;;10.20;91.90;;;;;;5112938;28;20035;-74
2023/02/17 05:36:17;;;;;;;8.63;6.10;;;10.20;91.90;;;;;;5112891;28;20469;-74
2023/02/17 05:38:45;;;;;;;9.43;6.55;;;10.20;92.00;;;;;;5112757;28;20035;-74
2023/02/17 05:41:10;;;;;;;8.88;6.05;;;10.20;92.00;;;;;;5112963;28;20043;-74
2023/02/17 05:43:36;;;;;;;8.68;6.07;;;10.20;92.00;;;;;;5113305;28;20042;-73
2023/02/17 05:46:03;;;;;;;8.00;5.28;;;10.20;92.00;;;;;;5094455;28;20048;-74
2023/02/17 05:48:29;;;;;;;7.53;5.20;;;10.10;92.00;;;;;;5077653;28;20043;-74
2023/02/17 05:50:55;;;;;;;7.63;5.30;;;10.20;92.10;;;;;;5113224;28;20038;-74
2023/02/17 05:53:20;;;;;;;8.30;5.72;;;10.20;92.10;;;;;;5112727;28;20043;-74
2023/02/17 05:55:46;;;;;;;8.90;5.85;;;10.20;92.10;;;;;;5077913;28;20493;-74
2023/02/17 05:58:12;;;;;;;9.98;6.00;;;10.20;92.10;;;;;;5098219;28;20035;-74
2023/02/17 06:00:37;;;;;;;9.27;6.13;;;10.20;92.10;;;;;;5116187;28;20122;-74
2023/02/17 06:03:03;;;;;;;8.32;6.03;;;10.10;92.10;;;;;;5097968;28;20126;-74
2023/02/17 06:05:28;;;;;;;9.18;6.45;;;10.20;92.10;;;;;;5116227;28;20135;-74
2023/02/17 06:07:54;;;;;;;9.18;6.38;;;10.20;92.10;;;;;;5097731;28;20051;-73
2023/02/17 06:10:20;;;;;;;9.57;6.70;;;10.20;92.00;;;;;;5097570;28;20062;-74
2023/02/17 06:12:45;;;;;;;10.07;6.68;;;10.20;92.00;;;;;;5115851;28;20081;-74
2023/02/17 06:15:11;;;;;;;8.18;5.80;;;10.30;92.00;;;;;;5097514;28;20065;-74
2023/02/17 06:17:37;;;;;;;8.55;5.97;;;10.20;92.00;;;;;;5116344;28;20038;-73
2023/02/17 06:20:04;;;;;;;7.95;5.13;;;10.30;92.00;;;;;;5115780;28;20126;-73
2023/02/17 06:22:29;;;;;;;9.32;6.30;;;10.30;92.10;;;;;;5097608;28;20141;-73
2023/02/17 06:24:55;;;;;;;9.65;6.10;;;10.30;92.10;;;;;;5097600;28;20051;-73
2023/02/17 06:27:20;;;;;;;8.40;5.75;;;10.20;92.10;;;;;;5116116;28;20047;-73
2023/02/17 06:29:46;;;;;;;8.40;5.78;;;10.30;92.10;;;;;;5115986;28;20500;-73
2023/02/17 06:32:12;;;;;;;9.38;6.22;;;10.30;92.10;;;;;;5097583;28;20089;-73
2023/02/17 06:34:37;;;;;;;9.82;6.93;;;10.30;92.10;;;;;;5080569;28;20122;-73
2023/02/17 06:37:03;;;;;;;9.35;6.00;;;10.30;92.10;;;;;;5115937;28;20032;-73
2023/02/17 06:39:29;;;;;;;10.40;6.20;;;10.30;92.00;;;;;;5097602;28;20073;-73
2023/02/17 06:41:54;;;;;;;9.65;6.88;;;10.30;92.10;;;;;;5115979;28;20382;-73
2023/02/17 06:44:20;;;;;;;9.90;6.30;;;10.30;92.10;;;;;;5097694;28;20048;-74
2023/02/17 06:46:46;;;;;;;9.32;6.55;;;10.30;92.00;;;;;;5097185;28;20077;-73
2023/02/17 06:49:12;;;;;;;8.75;6.25;;;10.30;92.00;;;;;;5115985;28;20043;-74
2023/02/17 06:51:38;;;;;;;8.57;6.03;;;10.30;92.10;;;;;;5115782;28;20385;-74
2023/02/17 06:54:04;;;;;;;9.23;5.80;;;10.40;92.10;;;;;;5097163;28;20036;-74
2023/02/17 06:56:30;;;;;;;8.13;5.45;;;10.40;92.10;;;;;;5115948;28;20442;-74
2023/02/17 06:58:55;;;;;;;8.48;5.50;;;10.40;92.10;;;;;;5115235;28;20069;-74
2023/02/17 07:01:25;;;;;;;8.88;5.35;;;10.40;92.10;;;;;;5097053;28;20072;-74
2023/02/17 07:03:52;;;;;;;8.32;5.22;;;10.40;92.10;;;;;;5097761;28;20043;-74
2023/02/17 07:06:18;;;;;;;7.63;5.43;;;10.40;92.20;;;;;;5097789;28;20043;-74
2023/02/17 07:08:44;;;;;;;10.05;5.50;;;10.50;92.20;;;;;;5114967;28;20058;-74
2023/02/17 07:11:12;;;;;;;9.35;6.53;;;10.50;92.20;;;;;;5114972;28;20050;-74
2023/02/17 07:13:38;;;;;;;9.35;6.30;;;10.50;92.20;;;;;;5115041;28;20043;-74
2023/02/17 07:16:04;;;;;;;9.38;6.18;;;10.40;92.20;;;;;;5096763;28;20389;-74
2023/02/17 07:18:30;;;;;;;10.43;6.90;;;10.50;92.50;;;;;;5096511;28;20461;-73
2023/02/17 07:20:55;;;;;;;10.15;6.50;;;10.40;92.20;;;;;;5079623;28;20142;-74
2023/02/17 07:23:21;;;;;;;9.27;6.70;;;10.50;92.20;;;;;;5096536;28;20063;-74
2023/02/17 07:25:47;;;;;;;10.15;6.32;;;10.50;92.20;;;;;;5096670;28;20054;-74
2023/02/17 07:28:12;;;;;;;9.25;6.47;;;10.50;92.10;;;;;;5096321;28;20568;-75
2023/02/17 07:30:40;;;;;;;8.93;5.95;;;10.50;92.10;;;;;;5097014;28;20039;-74
2023/02/17 07:33:06;;;;;;;9.55;6.00;;;10.60;92.10;;;;;;5096368;28;20063;-74
2023/02/17 07:35:32;;;;;;;9.27;6.43;;;10.60;92.10;;;;;;5114475;28;20468;-74
2023/02/17 07:37:58;;;;;;;8.20;5.68;;;10.60;92.10;;;;;;5096353;28;20040;-74
2023/02/17 07:40:24;;;;;;;8.90;5.82;;;10.60;92.10;;;;;;5096275;28;20547;-74
2023/02/17 07:42:50;;;;;;;8.48;6.15;;;10.60;92.10;;;;;;5096185;28;20044;-74
2023/02/17 07:45:16;;;;;;;9.50;5.72;;;10.60;92.10;;;;;;5114668;28;20108;-74
2023/02/17 07:47:41;;;;;;;8.65;5.68;;;10.70;92.10;;;;;;5114528;28;20044;-75
2023/02/17 07:50:08;;;;;;;9.20;6.45;;;10.70;92.10;;;;;;5114175;28;20042;-75
2023/02/17 07:52:33;;;;;;;8.95;6.25;;;10.70;92.10;;;;;;5114255;28;20039;-75
2023/02/17 07:54:59;;;;;;;8.85;6.05;;;10.70;92.10;;;;;;5096021;28;20138;-75
2023/02/17 07:57:25;;;;;;;7.40;5.38;;;10.60;92.10;;;;;;5078970;28;20123;-75
2023/02/17 07:59:51;;;;;;;10.77;6.60;;;10.70;92.10;;;;;;5078777;28;20450;-74
2023/02/17 08:02:17;;;;;;;9.18;6.07;;;10.70;92.10;;;;;;5062341;28;20096;-73
2023/02/17 08:04:44;;;;;;;8.90;6.50;;;10.70;92.10;;;;;;5062935;28;20177;-74
2023/02/17 08:07:10;;;;;;;10.02;7.22;;;10.80;92.10;;;;;;5062395;28;20043;-73
2023/02/17 08:15:00;;;;;;;11.07;7.18;;;10.80;92.00;;;;;;5083557;28;20059;-74
2023/02/17 08:17:27;;;;;;;11.32;7.68;;;10.90;92.00;;;;;;5078789;28;20040;-74
2023/02/17 08:19:53;;;;;;;9.60;6.55;;;10.80;92.00;;;;;;5078085;28;20035;-73
2023/02/17 08:22:19;;;;;;;8.45;5.90;;;10.90;92.00;;;;;;5062145;28;20401;-74
2023/02/17 08:24:45;;;;;;;9.05;6.18;;;10.90;92.00;;;;;;5061988;28;20050;-74
2023/02/17 08:27:12;;;;;;;8.60;5.75;;;10.90;92.00;;;;;;5079097;28;20064;-74
2023/02/17 08:29:38;;;;;;;9.25;6.38;;;11.00;92.10;;;;;;5062292;28;20066;-74
2023/02/17 08:32:04;;;;;;;9.32;6.47;;;10.90;92.00;;;;;;5061923;28;20501;-74
2023/02/17 08:34:32;;;;;;;7.72;5.45;;;11.00;92.00;;;;;;5062359;28;20043;-73
2023/02/17 08:36:59;;;;;;;8.35;5.75;;;11.00;91.90;;;;;;5078528;28;20135;-74
2023/02/17 08:39:26;;;;;;;8.65;6.55;;;11.00;91.90;;;;;;5061716;28;20046;-74
2023/02/17 08:41:52;;;;;;;9.35;6.15;;;11.10;91.90;;;;;;5061843;28;20078;-73
2023/02/17 08:44:19;;;;;;;8.07;5.75;;;11.00;91.80;;;;;;5061418;28;20043;-74
2023/02/17 08:46:47;;;;;;;8.68;5.97;;;11.10;91.90;;;;;;5062407;28;20063;-74
2023/02/17 08:49:14;;;;;;;7.97;5.70;;;11.10;91.90;;;;;;5062327;28;20464;-73
2023/02/17 08:51:40;;;;;;;8.38;5.78;;;11.10;91.80;;;;;;5061914;28;20047;-73
2023/02/17 08:54:07;;;;;;;7.40;4.68;;;11.20;91.80;;;;;;5061798;28;20054;-74
2023/02/17 08:56:33;;;;;;;7.60;5.03;;;11.20;91.80;;;;;;5061837;28;20035;-73
2023/02/17 08:58:59;;;;;;;7.00;4.70;;;11.30;91.80;;;;;;5078636;28;20040;-73
2023/02/17 09:01:25;;;;;;;9.20;5.70;;;11.30;91.80;;;;;;5095697;28;20104;-73
2023/02/17 09:03:52;;;;;;;8.02;5.10;;;11.30;91.80;;;;;;5078208;28;20043;-73
2023/02/17 09:06:20;;;;;;;7.50;4.93;;;11.40;91.80;;;;;;5061735;28;20435;-74
2023/02/17 09:08:46;;;;;;;7.50;4.78;;;11.40;91.70;;;;;;5061805;28;20040;-74
2023/02/17 09:11:14;;;;;;;7.88;5.32;;;11.40;91.70;;;;;;5095087;28;20059;-74
2023/02/17 09:13:40;;;;;;;8.80;4.43;;;11.30;91.70;;;;;;5079273;28;20031;-75
2023/02/17 09:16:06;;;;;;;6.78;4.20;;;11.40;91.70;;;;;;5061461;28;20127;-75
2023/02/17 09:18:32;;;;;;;6.50;4.38;;;11.40;91.60;;;;;;5061596;28;20537;-75
2023/02/17 09:20:59;;;;;;;7.00;4.28;;;11.40;91.60;;;;;;5077954;28;20043;-75
2023/02/17 09:23:25;;;;;;;7.65;4.65;;;11.50;91.70;;;;;;5061653;28;20058;-75
2023/02/17 09:26:03;;;;;;;6.53;4.20;;;11.50;91.60;;;;;;5061294;28;20074;-74
2023/02/17 09:28:29;;;;;;;6.47;4.35;;;11.50;91.60;;;;;;5078020;28;20553;-74
2023/02/17 09:30:54;;;;;;;6.40;4.25;;;11.40;91.60;;;;;;5059696;28;20075;-74
2023/02/17 09:33:20;;;;;;;6.03;4.15;;;11.50;91.60;;;;;;5060951;28;20051;-75
2023/02/17 09:35:48;;;;;;;6.15;4.43;;;11.50;91.60;;;;;;5078148;28;20051;-75
2023/02/17 09:38:14;;;;;;;5.03;3.47;;;11.50;91.50;;;;;;5061190;28;20042;-75
2023/02/17 09:40:50;;;;;;;6.15;4.60;;;11.50;91.50;;;;;;5061044;28;20040;-74
2023/02/17 09:43:19;;;;;;;5.72;3.92;;;11.60;91.50;;;;;;5061849;28;20500;-76
2023/02/17 09:45:51;;;;;;;6.32;3.95;;;11.60;91.50;;;;;;5060812;28;20142;-77
2023/02/17 09:48:21;;;;;;;6.43;4.22;;;11.70;91.40;;;;;;5061240;28;20082;-74
2023/02/17 09:51:12;;;;;;;6.10;3.97;;;11.70;91.40;;;;;;5077657;28;20116;-74
2023/02/17 09:53:47;;;;;;;6.07;3.90;;;11.70;91.40;;;;;;5061618;28;20059;-74
2023/02/17 09:56:17;;;;;;;6.68;3.83;;;11.70;91.40;;;;;;5061361;28;20073;-74
2023/02/17 09:58:48;;;;;;;5.95;4.10;;;11.70;91.40;;;;;;5061158;28;20044;-74
2023/02/17 10:01:19;;;;;;;6.20;4.18;;;11.80;91.40;;;;;;5061226;28;20074;-75
2023/02/17 10:03:56;;;;;;;;;;;11.70;91.30;;;;;;5061739;28;20059;-74
2023/02/17 10:06:28;;;;;;;5.35;3.70;;;11.80;91.20;;;;;;5075829;28;19951;-75
2023/02/17 10:09:11;;;;;;;5.25;3.58;;;11.80;91.20;;;;;;5077953;28;20079;-75
2023/02/17 10:11:51;;;;;;;5.32;3.38;;;11.80;91.20;;;;;;5063035;28;20038;-75
2023/02/17 10:14:25;;;;;;;5.38;3.30;;;11.80;91.20;;;;;;5076908;28;20031;-75
2023/02/17 10:16:59;;;;;;;5.28;3.33;;;11.70;91.20;;;;;;5060895;28;20039;-74
2023/02/17 10:19:29;;;;;;;5.05;3.53;;;11.70;91.20;;;;;;5061179;28;20039;-75
2023/02/17 10:22:04;;;;;;;6.03;3.95;;;11.80;91.20;;;;;;5077637;28;20054;-74
2023/02/17 10:24:30;;;;;;;5.30;3.65;;;11.60;91.10;;;;;;5061417;28;20469;-75
2023/02/17 10:27:12;;;;;;;5.22;3.53;;;11.80;91.10;;;;;;5076937;28;20046;-76
2023/02/17 10:30:12;;;;;;;4.57;3.22;;;11.90;91.10;;;;;;5078635;28;20054;-73
2023/02/17 10:33:01;;;;;;;7.03;3.33;;;11.80;91.00;;;;;;5079917;28;20454;-74
2023/02/17 10:36:02;;;;;;;5.25;3.50;;;11.80;91.00;;;;;;5062077;28;20067;-75
2023/02/17 10:38:54;;;;;;;5.18;3.10;;;11.80;91.00;;;;;;5092534;28;20044;-75
2023/02/17 10:41:28;;;;;;;4.28;2.65;;;11.80;91.00;;;;;;5062764;28;20097;-74
2023/02/17 10:43:54;;;;;;;5.00;3.10;;;11.80;91.00;;;;;;5064241;28;20492;-75
2023/02/17 10:46:27;;;;;;;3.90;2.72;;;11.80;91.00;;;;;;5063824;28;20043;-75
2023/02/17 10:48:54;;;;;;;4.88;3.25;;;11.70;91.00;;;;;;5081399;28;20063;-75
2023/02/17 10:51:25;;;;;;;4.45;2.90;;;11.70;91.00;;;;;;5064249;28;20035;-75
2023/02/17 10:54:03;;;;;;;4.22;2.67;;;11.70;91.00;;;;;;5063983;28;20032;-74
2023/02/17 10:56:45;;;;;;;5.20;2.80;;;11.70;91.00;;;;;;5081919;28;20032;-76
2023/02/17 10:59:21;;;;;;;6.80;3.40;;;11.70;91.00;;;;;;5064565;28;20063;-75
2023/02/17 11:01:47;;;;;;;6.18;3.40;;;11.70;91.00;;;;;;5079272;28;20070;-75
2023/02/17 11:04:13;;;;;;;7.53;3.60;;;11.80;91.00;;;;;;5097068;28;20491;-75
2023/02/17 11:06:55;;;;;;;5.05;3.55;;;11.70;90.90;;;;;;5115745;28;20126;-75
2023/02/17 11:09:30;;;;;;;5.22;3.47;;;11.70;90.90;;;;;;5096462;28;20413;-75
2023/02/17 11:12:02;;;;;;;5.18;3.25;;;11.80;90.90;;;;;;5115471;28;20051;-74
2023/02/17 11:14:31;;;;;;;5.00;3.33;;;11.80;90.90;;;;;;5114029;28;20036;-74
2023/02/17 11:17:01;;;;;;;4.78;3.00;;;11.70;90.80;;;;;;5097125;28;20111;-74
2023/02/17 11:19:33;;;;;;;4.95;3.15;;;11.80;90.90;;;;;;5094704;28;20419;-74
2023/02/17 11:22:02;;;;;;;4.93;3.08;;;11.80;90.80;;;;;;5113156;28;20043;-74
2023/02/17 11:24:30;;;;;;;5.45;3.30;;;11.80;90.80;;;;;;5114856;28;20043;-73
2023/02/17 11:26:59;;;;;;;5.38;3.38;;;11.90;90.80;;;;;;5096148;28;20548;-74
2023/02/17 11:29:26;;;;;;;5.22;3.22;;;11.90;90.80;;;;;;5114976;28;20052;-76
2023/02/17 11:31:59;;;;;;;6.60;3.53;;;11.90;90.70;;;;;;5096369;28;20059;-75
2023/02/17 11:34:28;;;;;;;6.93;4.00;;;12.00;90.70;;;;;;5114877;28;20035;-76
2023/02/17 11:37:01;;;;;;;5.60;3.50;;;12.00;90.70;;;;;;5114566;28;20069;-75
2023/02/17 11:39:27;;;;;;;5.53;3.60;;;12.00;90.60;;;;;;5096278;28;20088;-75
2023/02/17 11:41:53;;;;;;;5.82;3.60;;;11.90;90.60;;;;;;5096115;28;20127;-75
2023/02/17 11:44:24;;;;;;;5.38;3.28;;;11.90;90.60;;;;;;5114328;28;20039;-74
2023/02/17 11:46:57;;;;;;;;;;;11.90;90.60;;;;;;5096486;28;20050;-74
2023/02/17 11:49:54;;;;;;;5.80;3.65;;;11.90;90.60;;;;;;5114395;28;20602;-75
2023/02/17 11:52:41;;;;;;;6.75;3.80;;;12.00;90.60;;;;;;5095602;28;20036;-74
2023/02/17 11:55:34;;;;;;;7.15;4.15;;;11.90;90.60;;;;;;5112543;28;20044;-74
2023/02/17 11:58:34;;;;;;;5.93;3.85;;;11.90;90.60;;;;;;5114423;28;20401;-76
2023/02/17 12:01:21;;;;;;;5.15;3.08;;;11.90;90.70;;;;;;5096083;28;20043;-75
2023/02/17 12:04:04;;;;;;;5.88;3.60;;;11.90;90.70;;;;;;5112656;28;20047;-77
2023/02/17 12:06:54;;;;;;;6.40;3.60;;;11.90;90.70;;;;;;5094045;28;20041;-76
2023/02/17 12:09:42;;;;;;;5.63;3.13;;;11.90;90.70;;;;;;5112868;28;20401;-75
2023/02/17 12:12:31;;;;;;;6.53;3.38;;;11.90;90.60;;;;;;5096127;28;20080;-76
2023/02/17 12:15:15;;;;;;;5.85;3.53;;;11.90;90.60;;;;;;5114080;28;20040;-74
2023/02/17 12:17:55;;;;;;;4.85;3.00;;;11.90;90.60;;;;;;5095724;28;20158;-74
2023/02/17 12:20:37;;;;;;;6.43;3.88;;;11.90;90.60;;;;;;5114091;28;20049;-73
2023/02/17 12:23:25;;;;;;;6.40;4.05;;;11.90;90.60;;;;;;5095605;28;20074;-75
2023/02/17 12:26:05;;;;;;;7.35;3.95;;;11.90;90.60;;;;;;5081380;28;20035;-76
2023/02/17 12:28:58;;;;;;;8.32;4.75;;;11.90;90.60;;;;;;5114404;28;20054;-76
2023/02/17 12:31:44;;;;;;;7.78;4.90;;;11.90;90.60;;;;;;5112737;28;20071;-75
2023/02/17 12:34:32;;;;;;;7.95;4.40;;;11.90;90.70;;;;;;5114065;28;20541;-75
2023/02/17 12:36:59;;;;;;;7.95;4.32;;;11.90;90.70;;;;;;5114063;28;20130;-75
2023/02/17 12:39:39;;;;;;;6.93;4.40;;;11.80;90.70;;;;;;5095374;28;20043;-75
2023/02/17 12:42:20;;;;;;;7.32;4.63;;;11.80;90.70;;;;;;5111724;28;20043;-76
2023/02/17 12:44:51;;;;;;;7.15;4.82;;;11.80;90.70;;;;;;5078480;28;20153;-74
2023/02/17 12:47:29;;;;;;;7.57;4.63;;;11.80;90.70;;;;;;5078344;28;20040;-74
2023/02/17 12:50:07;;;;;;;6.43;4.10;;;11.80;90.70;;;;;;5113785;28;20436;-75
2023/02/17 12:52:39;;;;;;;5.93;4.03;;;11.80;90.80;;;;;;5113387;28;20115;-75
2023/02/17 12:55:17;;;;;;;6.75;4.53;;;11.80;90.80;;;;;;5078245;28;20534;-74
2023/02/17 12:57:54;;;;;;;7.82;4.53;;;11.70;90.80;;;;;;5113636;28;20063;-74
2023/02/17 13:00:26;;;;;;;7.22;4.40;;;11.80;90.80;;;;;;5096262;28;20042;-74
2023/02/17 13:02:57;;;;;;;8.52;5.03;;;11.80;90.80;;;;;;5078054;28;20085;-73
2023/02/17 13:05:43;;;;;;;7.80;4.93;;;11.80;90.80;;;;;;5113295;28;20043;-74
2023/02/17 13:08:17;;;;;;;7.28;4.15;;;11.80;90.80;;;;;;5113138;28;20092;-74